sensor_id;sensor_type;location;lat;lon;timestamp;P1;durP1;ratioP1;P2;durP2;ratioP2
28007;SDS011;15333;50.010;20.020;2023-05-29T00:02:56;14.05;;;7.05;;
28007;SDS011;15333;50.010;20.020;2023-05-29T00:05:57;17.80;;;7.32;;
28007;SDS011;15333;50.010;20.020;2023-05-29T00:08:58;12.25;;;7.55;;
28007;SDS011;15333;50.010;20.020;2023-05-29T00:11:59;11.90;;;6.93;;
28007;SDS011;15333;50.010;20.020;2023-05-29T00:15:02;20.67;;;8.60;;
28007;SDS011;15333;50.010;20.020;2023-05-29T00:18:06;11.93;;;7.82;;
28007;SDS011;15333;50.010;20.020;2023-05-29T00:21:07;13.68;;;7.57;;
28007;SDS011;15333;50.010;20.020;2023-05-29T00:24:09;15.40;;;7.63;;
28007;SDS011;15333;50.010;20.020;2023-05-29T00:27:12;17.17;;;7.60;;
28007;SDS011;15333;50.010;20.020;2023-05-29T00:30:13;16.98;;;8.57;;
28007;SDS011;15333;50.010;20.020;2023-05-29T00:33:14;20.98;;;9.80;;
28007;SDS011;15333;50.010;20.020;2023-05-29T00:36:16;18.85;;;8.93;;
28007;SDS011;15333;50.010;20.020;2023-05-29T00:39:17;17.60;;;8.70;;
28007;SDS011;15333;50.010;20.020;2023-05-29T00:42:18;16.25;;;9.52;;
28007;SDS011;15333;50.010;20.020;2023-05-29T00:45:19;20.17;;;8.65;;
28007;SDS011;15333;50.010;20.020;2023-05-29T00:48:20;17.58;;;8.65;;
28007;SDS011;15333;50.010;20.020;2023-05-29T00:51:21;24.60;;;9.05;;
28007;SDS011;15333;50.010;20.020;2023-05-29T00:54:23;15.63;;;9.23;;
28007;SDS011;15333;50.010;20.020;2023-05-29T00:57:28;17.15;;;9.00;;
28007;SDS011;15333;50.010;20.020;2023-05-29T01:00:29;19.67;;;8.82;;
28007;SDS011;15333;50.010;20.020;2023-05-29T01:03:31;18.45;;;9.05;;
28007;SDS011;15333;50.010;20.020;2023-05-29T01:06:33;15.75;;;8.50;;
28007;SDS011;15333;50.010;20.020;2023-05-29T01:09:35;16.88;;;9.18;;
28007;SDS011;15333;50.010;20.020;2023-05-29T01:16:29;33.30;;;20.42;;
28007;SDS011;15333;50.010;20.020;2023-05-29T01:26:40;18.90;;;10.13;;
28007;SDS011;15333;50.010;20.020;2023-05-29T01:29:43;20.00;;;9.93;;
28007;SDS011;15333;50.010;20.020;2023-05-29T01:32:47;18.20;;;10.25;;
28007;SDS011;15333;50.010;20.020;2023-05-29T01:35:49;15.30;;;8.57;;
28007;SDS011;15333;50.010;20.020;2023-05-29T01:38:50;22.85;;;10.52;;
28007;SDS011;15333;50.010;20.020;2023-05-29T01:41:52;15.77;;;9.57;;
28007;SDS011;15333;50.010;20.020;2023-05-29T01:44:55;14.52;;;8.35;;
28007;SDS011;15333;50.010;20.020;2023-05-29T01:47:58;15.95;;;9.40;;
28007;SDS011;15333;50.010;20.020;2023-05-29T01:50:58;17.48;;;9.60;;
28007;SDS011;15333;50.010;20.020;2023-05-29T01:54:01;21.17;;;10.23;;
28007;SDS011;15333;50.010;20.020;2023-05-29T01:57:02;15.20;;;9.57;;
28007;SDS011;15333;50.010;20.020;2023-05-29T02:00:07;18.20;;;10.20;;
28007;SDS011;15333;50.010;20.020;2023-05-29T02:03:14;16.08;;;8.70;;
28007;SDS011;15333;50.010;20.020;2023-05-29T02:06:16;17.27;;;10.02;;
28007;SDS011;15333;50.010;20.020;2023-05-29T02:09:16;24.40;;;12.02;;
28007;SDS011;15333;50.010;20.020;2023-05-29T02:12:18;21.50;;;10.90;;
28007;SDS011;15333;50.010;20.020;2023-05-29T02:15:19;19.67;;;10.02;;
28007;SDS011;15333;50.010;20.020;2023-05-29T02:18:22;17.75;;;10.00;;
28007;SDS011;15333;50.010;20.020;2023-05-29T02:21:23;20.55;;;10.20;;
28007;SDS011;15333;50.010;20.020;2023-05-29T02:24:24;17.70;;;9.98;;
28007;SDS011;15333;50.010;20.020;2023-05-29T02:27:24;19.75;;;9.75;;
28007;SDS011;15333;50.010;20.020;2023-05-29T02:30:25;18.08;;;10.48;;
28007;SDS011;15333;50.010;20.020;2023-05-29T02:33:28;19.15;;;10.82;;
28007;SDS011;15333;50.010;20.020;2023-05-29T02:45:12;18.75;;;10.48;;
28007;SDS011;15333;50.010;20.020;2023-05-29T02:48:13;16.52;;;9.50;;
28007;SDS011;15333;50.010;20.020;2023-05-29T02:51:14;17.42;;;8.90;;
28007;SDS011;15333;50.010;20.020;2023-05-29T02:54:15;22.20;;;9.55;;
28007;SDS011;15333;50.010;20.020;2023-05-29T02:57:15;16.50;;;9.35;;
28007;SDS011;15333;50.010;20.020;2023-05-29T03:00:16;15.88;;;8.63;;
28007;SDS011;15333;50.010;20.020;2023-05-29T03:03:18;16.30;;;8.43;;
28007;SDS011;15333;50.010;20.020;2023-05-29T03:06:19;14.10;;;8.40;;
28007;SDS011;15333;50.010;20.020;2023-05-29T03:09:20;14.82;;;8.13;;
28007;SDS011;15333;50.010;20.020;2023-05-29T03:12:21;18.42;;;7.93;;
28007;SDS011;15333;50.010;20.020;2023-05-29T03:15:22;14.45;;;7.47;;
28007;SDS011;15333;50.010;20.020;2023-05-29T03:18:23;16.30;;;7.82;;
28007;SDS011;15333;50.010;20.020;2023-05-29T03:21:24;14.65;;;8.05;;
28007;SDS011;15333;50.010;20.020;2023-05-29T03:24:26;17.70;;;8.30;;
28007;SDS011;15333;50.010;20.020;2023-05-29T03:27:27;12.75;;;7.70;;
28007;SDS011;15333;50.010;20.020;2023-05-29T03:30:37;17.45;;;7.53;;
28007;SDS011;15333;50.010;20.020;2023-05-29T03:33:38;16.77;;;7.68;;
28007;SDS011;15333;50.010;20.020;2023-05-29T03:36:55;16.35;;;7.93;;
28007;SDS011;15333;50.010;20.020;2023-05-29T03:39:58;11.63;;;7.18;;
28007;SDS011;15333;50.010;20.020;2023-05-29T03:42:59;11.35;;;7.30;;
28007;SDS011;15333;50.010;20.020;2023-05-29T03:46:00;14.88;;;7.82;;
28007;SDS011;15333;50.010;20.020;2023-05-29T03:49:04;18.05;;;7.88;;
28007;SDS011;15333;50.010;20.020;2023-05-29T03:52:06;19.27;;;8.23;;
28007;SDS011;15333;50.010;20.020;2023-05-29T03:55:08;21.05;;;8.32;;
28007;SDS011;15333;50.010;20.020;2023-05-29T03:58:13;15.13;;;7.30;;
28007;SDS011;15333;50.010;20.020;2023-05-29T04:01:15;19.60;;;8.82;;
28007;SDS011;15333;50.010;20.020;2023-05-29T04:04:15;18.48;;;8.20;;
28007;SDS011;15333;50.010;20.020;2023-05-29T04:07:16;21.48;;;7.95;;
28007;SDS011;15333;50.010;20.020;2023-05-29T04:10:18;18.10;;;8.00;;
28007;SDS011;15333;50.010;20.020;2023-05-29T04:13:20;17.40;;;8.55;;
28007;SDS011;15333;50.010;20.020;2023-05-29T04:16:21;14.05;;;7.72;;
28007;SDS011;15333;50.010;20.020;2023-05-29T04:19:22;14.00;;;7.38;;
28007;SDS011;15333;50.010;20.020;2023-05-29T04:22:23;15.50;;;7.53;;
28007;SDS011;15333;50.010;20.020;2023-05-29T04:25:24;18.25;;;8.55;;
28007;SDS011;15333;50.010;20.020;2023-05-29T04:28:25;21.55;;;8.40;;
28007;SDS011;15333;50.010;20.020;2023-05-29T04:31:28;19.90;;;8.98;;
28007;SDS011;15333;50.010;20.020;2023-05-29T04:34:30;24.88;;;8.55;;
28007;SDS011;15333;50.010;20.020;2023-05-29T04:37:31;19.38;;;8.40;;
28007;SDS011;15333;50.010;20.020;2023-05-29T04:40:38;21.55;;;8.80;;
28007;SDS011;15333;50.010;20.020;2023-05-29T04:43:41;12.63;;;7.65;;
28007;SDS011;15333;50.010;20.020;2023-05-29T04:46:42;16.60;;;7.68;;
28007;SDS011;15333;50.010;20.020;2023-05-29T04:49:48;18.75;;;8.93;;
28007;SDS011;15333;50.010;20.020;2023-05-29T04:52:50;31.58;;;10.65;;
28007;SDS011;15333;50.010;20.020;2023-05-29T04:55:51;23.35;;;10.77;;
28007;SDS011;15333;50.010;20.020;2023-05-29T04:58:52;23.42;;;13.48;;
28007;SDS011;15333;50.010;20.020;2023-05-29T05:01:55;16.48;;;11.32;;
28007;SDS011;15333;50.010;20.020;2023-05-29T05:04:56;17.35;;;10.95;;
28007;SDS011;15333;50.010;20.020;2023-05-29T05:07:57;17.88;;;9.32;;
28007;SDS011;15333;50.010;20.020;2023-05-29T05:11:01;15.57;;;7.82;;
28007;SDS011;15333;50.010;20.020;2023-05-29T05:14:04;14.93;;;7.03;;
28007;SDS011;15333;50.010;20.020;2023-05-29T05:17:05;24.55;;;7.85;;
28007;SDS011;15333;50.010;20.020;2023-05-29T05:20:06;16.60;;;7.78;;
28007;SDS011;15333;50.010;20.020;2023-05-29T05:23:09;17.30;;;7.68;;
28007;SDS011;15333;50.010;20.020;2023-05-29T05:26:11;11.90;;;6.70;;
28007;SDS011;15333;50.010;20.020;2023-05-29T05:29:12;12.68;;;6.78;;
28007;SDS011;15333;50.010;20.020;2023-05-29T05:32:14;14.07;;;7.40;;
28007;SDS011;15333;50.010;20.020;2023-05-29T05:35:15;14.52;;;6.10;;
28007;SDS011;15333;50.010;20.020;2023-05-29T05:38:17;10.30;;;4.75;;
28007;SDS011;15333;50.010;20.020;2023-05-29T05:41:18;13.48;;;5.28;;
28007;SDS011;15333;50.010;20.020;2023-05-29T05:44:19;9.48;;;4.80;;
28007;SDS011;15333;50.010;20.020;2023-05-29T05:47:24;10.57;;;5.35;;
28007;SDS011;15333;50.010;20.020;2023-05-29T05:50:26;10.75;;;5.05;;
28007;SDS011;15333;50.010;20.020;2023-05-29T05:53:26;12.20;;;5.38;;
28007;SDS011;15333;50.010;20.020;2023-05-29T05:56:27;14.60;;;8.25;;
28007;SDS011;15333;50.010;20.020;2023-05-29T05:59:28;13.60;;;7.00;;
28007;SDS011;15333;50.010;20.020;2023-05-29T06:02:29;10.68;;;6.80;;
28007;SDS011;15333;50.010;20.020;2023-05-29T06:05:31;11.25;;;6.05;;
28007;SDS011;15333;50.010;20.020;2023-05-29T06:08:33;18.75;;;6.47;;
28007;SDS011;15333;50.010;20.020;2023-05-29T06:11:34;14.75;;;6.50;;
28007;SDS011;15333;50.010;20.020;2023-05-29T06:14:35;18.92;;;6.57;;
28007;SDS011;15333;50.010;20.020;2023-05-29T06:17:36;14.93;;;6.60;;
28007;SDS011;15333;50.010;20.020;2023-05-29T06:20:39;18.25;;;9.45;;
28007;SDS011;15333;50.010;20.020;2023-05-29T06:23:41;14.25;;;5.47;;
28007;SDS011;15333;50.010;20.020;2023-05-29T06:26:42;17.17;;;6.40;;
28007;SDS011;15333;50.010;20.020;2023-05-29T06:29:46;15.35;;;6.55;;
28007;SDS011;15333;50.010;20.020;2023-05-29T06:32:47;13.65;;;5.90;;
28007;SDS011;15333;50.010;20.020;2023-05-29T06:35:48;17.00;;;5.95;;
28007;SDS011;15333;50.010;20.020;2023-05-29T06:38:51;14.93;;;5.72;;
28007;SDS011;15333;50.010;20.020;2023-05-29T06:41:52;14.18;;;5.50;;
28007;SDS011;15333;50.010;20.020;2023-05-29T06:44:53;24.42;;;6.80;;
28007;SDS011;15333;50.010;20.020;2023-05-29T06:47:54;19.30;;;6.38;;
28007;SDS011;15333;50.010;20.020;2023-05-29T06:50:56;21.15;;;6.95;;
28007;SDS011;15333;50.010;20.020;2023-05-29T06:54:15;26.95;;;8.02;;
28007;SDS011;15333;50.010;20.020;2023-05-29T06:57:16;21.90;;;8.07;;
28007;SDS011;15333;50.010;20.020;2023-05-29T07:00:17;27.58;;;7.80;;
28007;SDS011;15333;50.010;20.020;2023-05-29T07:03:30;25.30;;;8.30;;
28007;SDS011;15333;50.010;20.020;2023-05-29T07:06:30;22.35;;;8.77;;
28007;SDS011;15333;50.010;20.020;2023-05-29T07:09:33;19.83;;;8.73;;
28007;SDS011;15333;50.010;20.020;2023-05-29T07:12:35;22.95;;;9.25;;
28007;SDS011;15333;50.010;20.020;2023-05-29T07:15:37;25.13;;;8.25;;
28007;SDS011;15333;50.010;20.020;2023-05-29T07:18:39;18.88;;;8.43;;
28007;SDS011;15333;50.010;20.020;2023-05-29T07:21:41;21.58;;;8.40;;
28007;SDS011;15333;50.010;20.020;2023-05-29T07:24:41;27.70;;;9.25;;
28007;SDS011;15333;50.010;20.020;2023-05-29T07:27:43;29.63;;;9.50;;
28007;SDS011;15333;50.010;20.020;2023-05-29T07:30:44;26.42;;;9.27;;
28007;SDS011;15333;50.010;20.020;2023-05-29T07:33:45;38.40;;;9.32;;
28007;SDS011;15333;50.010;20.020;2023-05-29T07:37:05;23.65;;;8.70;;
28007;SDS011;15333;50.010;20.020;2023-05-29T07:40:09;28.55;;;10.18;;
28007;SDS011;15333;50.010;20.020;2023-05-29T07:43:29;32.90;;;9.07;;
28007;SDS011;15333;50.010;20.020;2023-05-29T07:46:34;32.50;;;9.77;;
28007;SDS011;15333;50.010;20.020;2023-05-29T07:49:57;22.05;;;9.10;;
28007;SDS011;15333;50.010;20.020;2023-05-29T07:53:01;29.63;;;9.45;;
28007;SDS011;15333;50.010;20.020;2023-05-29T07:56:03;27.45;;;9.65;;
28007;SDS011;15333;50.010;20.020;2023-05-29T07:59:05;22.85;;;8.45;;
28007;SDS011;15333;50.010;20.020;2023-05-29T08:02:07;25.95;;;9.23;;
28007;SDS011;15333;50.010;20.020;2023-05-29T08:05:24;26.25;;;8.25;;
28007;SDS011;15333;50.010;20.020;2023-05-29T08:08:25;30.25;;;8.95;;
28007;SDS011;15333;50.010;20.020;2023-05-29T08:11:26;23.00;;;9.30;;
28007;SDS011;15333;50.010;20.020;2023-05-29T08:14:27;23.80;;;8.05;;
28007;SDS011;15333;50.010;20.020;2023-05-29T08:17:30;27.80;;;8.27;;
28007;SDS011;15333;50.010;20.020;2023-05-29T08:20:31;29.20;;;8.10;;
28007;SDS011;15333;50.010;20.020;2023-05-29T08:23:32;23.63;;;8.18;;
28007;SDS011;15333;50.010;20.020;2023-05-29T08:26:32;26.63;;;8.25;;
28007;SDS011;15333;50.010;20.020;2023-05-29T08:29:33;23.60;;;8.85;;
28007;SDS011;15333;50.010;20.020;2023-05-29T08:32:36;28.52;;;8.23;;
28007;SDS011;15333;50.010;20.020;2023-05-29T08:35:38;26.52;;;8.48;;
28007;SDS011;15333;50.010;20.020;2023-05-29T08:38:39;32.63;;;7.63;;
28007;SDS011;15333;50.010;20.020;2023-05-29T08:44:46;21.45;;;7.07;;
28007;SDS011;15333;50.010;20.020;2023-05-29T08:47:52;28.67;;;7.57;;
28007;SDS011;15333;50.010;20.020;2023-05-29T08:50:54;23.15;;;6.60;;
28007;SDS011;15333;50.010;20.020;2023-05-29T08:53:57;19.20;;;6.35;;
28007;SDS011;15333;50.010;20.020;2023-05-29T08:56:58;28.08;;;7.88;;
28007;SDS011;15333;50.010;20.020;2023-05-29T09:00:02;28.52;;;7.57;;
28007;SDS011;15333;50.010;20.020;2023-05-29T09:03:11;24.90;;;8.87;;
28007;SDS011;15333;50.010;20.020;2023-05-29T09:06:13;17.90;;;7.03;;
28007;SDS011;15333;50.010;20.020;2023-05-29T09:09:14;23.85;;;7.10;;
28007;SDS011;15333;50.010;20.020;2023-05-29T09:12:16;28.27;;;7.28;;
28007;SDS011;15333;50.010;20.020;2023-05-29T09:15:18;13.45;;;6.03;;
28007;SDS011;15333;50.010;20.020;2023-05-29T09:18:20;19.80;;;5.68;;
28007;SDS011;15333;50.010;20.020;2023-05-29T09:21:26;15.88;;;5.00;;
28007;SDS011;15333;50.010;20.020;2023-05-29T09:24:28;23.20;;;4.97;;
28007;SDS011;15333;50.010;20.020;2023-05-29T09:27:28;12.95;;;4.10;;
28007;SDS011;15333;50.010;20.020;2023-05-29T09:33:47;12.00;;;4.63;;
28007;SDS011;15333;50.010;20.020;2023-05-29T09:36:52;11.52;;;4.10;;
28007;SDS011;15333;50.010;20.020;2023-05-29T09:39:53;12.10;;;4.38;;
28007;SDS011;15333;50.010;20.020;2023-05-29T09:42:54;9.82;;;3.92;;
28007;SDS011;15333;50.010;20.020;2023-05-29T09:45:55;11.35;;;3.95;;
28007;SDS011;15333;50.010;20.020;2023-05-29T09:49:00;14.52;;;4.28;;
28007;SDS011;15333;50.010;20.020;2023-05-29T09:52:03;7.45;;;4.07;;
28007;SDS011;15333;50.010;20.020;2023-05-29T09:55:06;9.32;;;3.95;;
28007;SDS011;15333;50.010;20.020;2023-05-29T09:58:07;8.43;;;4.63;;
28007;SDS011;15333;50.010;20.020;2023-05-29T10:01:09;17.48;;;4.47;;
28007;SDS011;15333;50.010;20.020;2023-05-29T10:04:11;9.27;;;3.83;;
28007;SDS011;15333;50.010;20.020;2023-05-29T10:07:26;11.23;;;4.10;;
28007;SDS011;15333;50.010;20.020;2023-05-29T10:10:28;10.10;;;3.70;;
28007;SDS011;15333;50.010;20.020;2023-05-29T10:13:31;6.75;;;4.05;;
28007;SDS011;15333;50.010;20.020;2023-05-29T10:16:38;8.65;;;3.92;;
28007;SDS011;15333;50.010;20.020;2023-05-29T10:19:44;8.10;;;3.90;;
28007;SDS011;15333;50.010;20.020;2023-05-29T10:22:48;8.98;;;3.80;;
28007;SDS011;15333;50.010;20.020;2023-05-29T10:25:53;8.93;;;3.75;;
28007;SDS011;15333;50.010;20.020;2023-05-29T10:29:05;18.60;;;4.20;;
28007;SDS011;15333;50.010;20.020;2023-05-29T10:32:29;14.48;;;3.97;;
28007;SDS011;15333;50.010;20.020;2023-05-29T10:35:44;9.10;;;3.88;;
28007;SDS011;15333;50.010;20.020;2023-05-29T10:38:48;11.17;;;4.50;;
28007;SDS011;15333;50.010;20.020;2023-05-29T10:41:50;13.57;;;4.22;;
28007;SDS011;15333;50.010;20.020;2023-05-29T10:44:52;10.27;;;4.43;;
28007;SDS011;15333;50.010;20.020;2023-05-29T10:47:53;10.95;;;4.35;;
28007;SDS011;15333;50.010;20.020;2023-05-29T10:50:54;9.48;;;4.38;;
28007;SDS011;15333;50.010;20.020;2023-05-29T10:53:56;9.25;;;4.47;;
28007;SDS011;15333;50.010;20.020;2023-05-29T10:56:58;9.75;;;4.10;;
28007;SDS011;15333;50.010;20.020;2023-05-29T11:00:07;10.82;;;4.75;;
28007;SDS011;15333;50.010;20.020;2023-05-29T11:03:19;8.68;;;4.05;;
28007;SDS011;15333;50.010;20.020;2023-05-29T11:06:22;11.00;;;4.28;;
28007;SDS011;15333;50.010;20.020;2023-05-29T11:09:26;8.70;;;4.07;;
28007;SDS011;15333;50.010;20.020;2023-05-29T11:12:55;8.75;;;4.25;;
28007;SDS011;15333;50.010;20.020;2023-05-29T11:19:40;13.85;;;5.20;;
28007;SDS011;15333;50.010;20.020;2023-05-29T11:25:49;9.13;;;3.90;;
28007;SDS011;15333;50.010;20.020;2023-05-29T11:28:51;10.80;;;5.00;;
28007;SDS011;15333;50.010;20.020;2023-05-29T11:32:02;9.40;;;4.90;;
28007;SDS011;15333;50.010;20.020;2023-05-29T11:35:07;7.47;;;5.15;;
28007;SDS011;15333;50.010;20.020;2023-05-29T11:38:09;8.45;;;4.60;;
28007;SDS011;15333;50.010;20.020;2023-05-29T11:41:10;15.70;;;5.38;;
28007;SDS011;15333;50.010;20.020;2023-05-29T11:44:13;10.93;;;5.78;;
28007;SDS011;15333;50.010;20.020;2023-05-29T11:47:14;10.77;;;4.38;;
28007;SDS011;15333;50.010;20.020;2023-05-29T11:50:19;8.77;;;5.10;;
28007;SDS011;15333;50.010;20.020;2023-05-29T11:53:25;10.07;;;4.90;;
28007;SDS011;15333;50.010;20.020;2023-05-29T11:56:27;13.18;;;5.15;;
28007;SDS011;15333;50.010;20.020;2023-05-29T11:59:29;12.00;;;4.95;;
28007;SDS011;15333;50.010;20.020;2023-05-29T12:02:30;12.35;;;5.32;;
28007;SDS011;15333;50.010;20.020;2023-05-29T12:05:32;17.67;;;5.88;;
28007;SDS011;15333;50.010;20.020;2023-05-29T12:08:44;11.88;;;4.97;;
28007;SDS011;15333;50.010;20.020;2023-05-29T12:11:51;15.13;;;4.70;;
28007;SDS011;15333;50.010;20.020;2023-05-29T12:14:52;14.70;;;5.00;;
28007;SDS011;15333;50.010;20.020;2023-05-29T12:17:53;16.98;;;5.05;;
28007;SDS011;15333;50.010;20.020;2023-05-29T12:21:02;9.15;;;4.72;;
28007;SDS011;15333;50.010;20.020;2023-05-29T12:24:04;13.88;;;5.47;;
28007;SDS011;15333;50.010;20.020;2023-05-29T12:27:05;11.00;;;4.68;;
28007;SDS011;15333;50.010;20.020;2023-05-29T12:30:11;13.35;;;5.05;;
28007;SDS011;15333;50.010;20.020;2023-05-29T12:33:28;9.63;;;4.90;;
28007;SDS011;15333;50.010;20.020;2023-05-29T12:36:30;10.48;;;5.10;;
28007;SDS011;15333;50.010;20.020;2023-05-29T12:39:33;13.10;;;5.05;;
28007;SDS011;15333;50.010;20.020;2023-05-29T12:42:34;9.57;;;5.00;;
28007;SDS011;15333;50.010;20.020;2023-05-29T12:45:35;12.57;;;5.05;;
28007;SDS011;15333;50.010;20.020;2023-05-29T12:48:35;8.50;;;4.72;;
28007;SDS011;15333;50.010;20.020;2023-05-29T12:51:40;8.45;;;5.20;;
28007;SDS011;15333;50.010;20.020;2023-05-29T12:54:42;10.93;;;4.80;;
28007;SDS011;15333;50.010;20.020;2023-05-29T12:57:43;8.65;;;4.80;;
28007;SDS011;15333;50.010;20.020;2023-05-29T13:00:46;10.55;;;4.57;;
28007;SDS011;15333;50.010;20.020;2023-05-29T13:03:47;9.95;;;5.55;;
28007;SDS011;15333;50.010;20.020;2023-05-29T13:06:48;10.20;;;5.38;;
28007;SDS011;15333;50.010;20.020;2023-05-29T13:09:49;14.75;;;5.30;;
28007;SDS011;15333;50.010;20.020;2023-05-29T13:12:50;12.77;;;5.10;;
28007;SDS011;15333;50.010;20.020;2023-05-29T13:15:55;16.50;;;5.53;;
28007;SDS011;15333;50.010;20.020;2023-05-29T13:18:56;13.32;;;4.95;;
28007;SDS011;15333;50.010;20.020;2023-05-29T13:21:57;17.95;;;5.18;;
28007;SDS011;15333;50.010;20.020;2023-05-29T13:24:57;15.35;;;5.05;;
28007;SDS011;15333;50.010;20.020;2023-05-29T13:27:59;11.80;;;5.15;;
28007;SDS011;15333;50.010;20.020;2023-05-29T13:31:00;12.73;;;5.65;;
28007;SDS011;15333;50.010;20.020;2023-05-29T13:34:01;9.60;;;4.90;;
28007;SDS011;15333;50.010;20.020;2023-05-29T13:37:02;16.63;;;6.75;;
28007;SDS011;15333;50.010;20.020;2023-05-29T13:40:04;12.13;;;5.47;;
28007;SDS011;15333;50.010;20.020;2023-05-29T13:43:05;11.70;;;5.53;;
28007;SDS011;15333;50.010;20.020;2023-05-29T13:46:06;11.38;;;5.55;;
28007;SDS011;15333;50.010;20.020;2023-05-29T13:49:07;10.40;;;5.07;;
28007;SDS011;15333;50.010;20.020;2023-05-29T13:52:08;13.50;;;4.80;;
28007;SDS011;15333;50.010;20.020;2023-05-29T13:55:09;10.80;;;5.15;;
28007;SDS011;15333;50.010;20.020;2023-05-29T13:58:10;15.90;;;5.03;;
28007;SDS011;15333;50.010;20.020;2023-05-29T14:01:11;10.23;;;4.20;;
28007;SDS011;15333;50.010;20.020;2023-05-29T14:04:12;13.75;;;5.75;;
28007;SDS011;15333;50.010;20.020;2023-05-29T14:07:13;15.45;;;5.13;;
28007;SDS011;15333;50.010;20.020;2023-05-29T14:10:14;10.18;;;4.50;;
28007;SDS011;15333;50.010;20.020;2023-05-29T14:13:15;9.30;;;5.15;;
28007;SDS011;15333;50.010;20.020;2023-05-29T14:16:16;10.27;;;4.57;;
28007;SDS011;15333;50.010;20.020;2023-05-29T14:19:17;9.95;;;4.90;;
28007;SDS011;15333;50.010;20.020;2023-05-29T14:22:18;13.70;;;5.10;;
28007;SDS011;15333;50.010;20.020;2023-05-29T14:25:19;12.43;;;4.72;;
28007;SDS011;15333;50.010;20.020;2023-05-29T14:28:20;11.93;;;4.90;;
28007;SDS011;15333;50.010;20.020;2023-05-29T14:31:21;14.40;;;5.10;;
28007;SDS011;15333;50.010;20.020;2023-05-29T14:34:22;13.68;;;5.78;;
28007;SDS011;15333;50.010;20.020;2023-05-29T14:37:23;16.77;;;5.22;;
28007;SDS011;15333;50.010;20.020;2023-05-29T14:40:24;15.80;;;5.75;;
28007;SDS011;15333;50.010;20.020;2023-05-29T14:43:25;12.23;;;4.88;;
28007;SDS011;15333;50.010;20.020;2023-05-29T14:46:26;15.95;;;5.13;;
28007;SDS011;15333;50.010;20.020;2023-05-29T14:49:28;5.68;;;4.45;;
28007;SDS011;15333;50.010;20.020;2023-05-29T14:52:32;11.52;;;5.50;;
28007;SDS011;15333;50.010;20.020;2023-05-29T14:55:33;7.70;;;5.05;;
28007;SDS011;15333;50.010;20.020;2023-05-29T14:58:38;9.02;;;5.13;;
28007;SDS011;15333;50.010;20.020;2023-05-29T15:01:39;10.05;;;5.50;;
28007;SDS011;15333;50.010;20.020;2023-05-29T15:04:40;11.82;;;5.30;;
28007;SDS011;15333;50.010;20.020;2023-05-29T15:07:40;8.20;;;5.40;;
28007;SDS011;15333;50.010;20.020;2023-05-29T15:10:41;11.15;;;5.22;;
28007;SDS011;15333;50.010;20.020;2023-05-29T15:13:42;9.52;;;5.25;;
28007;SDS011;15333;50.010;20.020;2023-05-29T15:16:44;14.80;;;4.93;;
28007;SDS011;15333;50.010;20.020;2023-05-29T15:19:45;8.85;;;4.93;;
28007;SDS011;15333;50.010;20.020;2023-05-29T15:22:46;8.52;;;4.88;;
28007;SDS011;15333;50.010;20.020;2023-05-29T15:25:51;11.48;;;5.63;;
28007;SDS011;15333;50.010;20.020;2023-05-29T15:28:53;8.70;;;5.32;;
28007;SDS011;15333;50.010;20.020;2023-05-29T15:31:54;8.15;;;5.10;;
28007;SDS011;15333;50.010;20.020;2023-05-29T15:34:55;9.07;;;4.90;;
28007;SDS011;15333;50.010;20.020;2023-05-29T15:37:56;11.75;;;5.53;;
28007;SDS011;15333;50.010;20.020;2023-05-29T15:40:57;8.82;;;4.90;;
28007;SDS011;15333;50.010;20.020;2023-05-29T15:43:58;8.43;;;4.93;;
28007;SDS011;15333;50.010;20.020;2023-05-29T15:46:59;10.50;;;4.68;;
28007;SDS011;15333;50.010;20.020;2023-05-29T15:50:00;9.85;;;4.68;;
28007;SDS011;15333;50.010;20.020;2023-05-29T15:53:01;9.55;;;4.57;;
28007;SDS011;15333;50.010;20.020;2023-05-29T15:56:02;7.93;;;4.13;;
28007;SDS011;15333;50.010;20.020;2023-05-29T15:59:03;9.68;;;4.57;;
28007;SDS011;15333;50.010;20.020;2023-05-29T16:02:05;8.32;;;4.45;;
28007;SDS011;15333;50.010;20.020;2023-05-29T16:05:06;9.10;;;5.18;;
28007;SDS011;15333;50.010;20.020;2023-05-29T16:08:08;14.05;;;5.35;;
28007;SDS011;15333;50.010;20.020;2023-05-29T16:11:09;8.02;;;4.40;;
28007;SDS011;15333;50.010;20.020;2023-05-29T16:14:10;13.15;;;4.40;;
28007;SDS011;15333;50.010;20.020;2023-05-29T16:17:11;8.50;;;5.13;;
28007;SDS011;15333;50.010;20.020;2023-05-29T16:20:12;9.63;;;5.45;;
28007;SDS011;15333;50.010;20.020;2023-05-29T16:23:14;10.65;;;4.85;;
28007;SDS011;15333;50.010;20.020;2023-05-29T16:26:15;12.10;;;4.97;;
28007;SDS011;15333;50.010;20.020;2023-05-29T16:29:16;11.13;;;5.45;;
28007;SDS011;15333;50.010;20.020;2023-05-29T16:32:17;10.48;;;5.72;;
28007;SDS011;15333;50.010;20.020;2023-05-29T16:35:18;7.68;;;5.43;;
28007;SDS011;15333;50.010;20.020;2023-05-29T16:38:19;9.00;;;5.45;;
28007;SDS011;15333;50.010;20.020;2023-05-29T16:41:20;10.90;;;5.15;;
28007;SDS011;15333;50.010;20.020;2023-05-29T16:44:21;11.73;;;5.57;;
28007;SDS011;15333;50.010;20.020;2023-05-29T16:47:22;10.05;;;4.63;;
28007;SDS011;15333;50.010;20.020;2023-05-29T16:50:23;10.13;;;5.40;;
28007;SDS011;15333;50.010;20.020;2023-05-29T16:53:24;12.35;;;5.70;;
28007;SDS011;15333;50.010;20.020;2023-05-29T16:56:25;11.70;;;6.10;;
28007;SDS011;15333;50.010;20.020;2023-05-29T16:59:26;8.32;;;5.05;;
28007;SDS011;15333;50.010;20.020;2023-05-29T17:02:27;12.73;;;5.78;;
28007;SDS011;15333;50.010;20.020;2023-05-29T17:05:29;13.20;;;5.75;;
28007;SDS011;15333;50.010;20.020;2023-05-29T17:08:30;9.55;;;5.60;;
28007;SDS011;15333;50.010;20.020;2023-05-29T17:11:31;11.95;;;5.80;;
28007;SDS011;15333;50.010;20.020;2023-05-29T17:14:32;10.27;;;5.60;;
28007;SDS011;15333;50.010;20.020;2023-05-29T17:17:33;10.43;;;6.53;;
28007;SDS011;15333;50.010;20.020;2023-05-29T17:20:34;13.23;;;5.80;;
28007;SDS011;15333;50.010;20.020;2023-05-29T17:23:36;11.05;;;6.00;;
28007;SDS011;15333;50.010;20.020;2023-05-29T17:26:36;13.85;;;6.63;;
28007;SDS011;15333;50.010;20.020;2023-05-29T17:29:38;17.08;;;5.97;;
28007;SDS011;15333;50.010;20.020;2023-05-29T17:32:38;11.25;;;5.38;;
28007;SDS011;15333;50.010;20.020;2023-05-29T17:35:39;18.20;;;6.25;;
28007;SDS011;15333;50.010;20.020;2023-05-29T17:38:40;12.88;;;6.45;;
28007;SDS011;15333;50.010;20.020;2023-05-29T17:41:41;11.93;;;6.35;;
28007;SDS011;15333;50.010;20.020;2023-05-29T17:44:42;9.40;;;5.70;;
28007;SDS011;15333;50.010;20.020;2023-05-29T17:47:43;15.85;;;5.80;;
28007;SDS011;15333;50.010;20.020;2023-05-29T17:50:44;12.57;;;6.55;;
28007;SDS011;15333;50.010;20.020;2023-05-29T17:53:46;13.32;;;6.40;;
28007;SDS011;15333;50.010;20.020;2023-05-29T17:56:47;11.20;;;6.22;;
28007;SDS011;15333;50.010;20.020;2023-05-29T17:59:48;16.83;;;6.10;;
28007;SDS011;15333;50.010;20.020;2023-05-29T18:02:48;13.40;;;6.50;;
28007;SDS011;15333;50.010;20.020;2023-05-29T18:05:50;12.00;;;6.13;;
28007;SDS011;15333;50.010;20.020;2023-05-29T18:08:50;12.93;;;6.40;;
28007;SDS011;15333;50.010;20.020;2023-05-29T18:11:51;14.30;;;6.45;;
28007;SDS011;15333;50.010;20.020;2023-05-29T18:14:52;12.10;;;6.80;;
28007;SDS011;15333;50.010;20.020;2023-05-29T18:17:53;22.52;;;6.47;;
28007;SDS011;15333;50.010;20.020;2023-05-29T18:20:54;13.10;;;6.00;;
28007;SDS011;15333;50.010;20.020;2023-05-29T18:23:55;14.43;;;6.72;;